createdAt,value
2018-12-21T00:01:39.901Z,100.00
2018-12-21T00:04:07.852Z,100.00
2018-12-21T00:06:35.954Z,100.00
2018-12-21T00:09:05.752Z,100.00
2018-12-21T00:11:33.702Z,100.00
2018-12-21T00:14:01.631Z,100.00
2018-12-21T00:16:29.607Z,100.00
2018-12-21T00:18:57.539Z,100.00
2018-12-21T00:21:25.611Z,100.00
2018-12-21T00:23:53.583Z,100.00
2018-12-21T00:26:21.564Z,100.00
2018-12-21T00:28:49.513Z,100.00
2018-12-21T00:31:23.095Z,100.00
2018-12-21T00:33:56.461Z,100.00
2018-12-21T00:36:30.014Z,100.00
2018-12-21T00:39:03.355Z,100.00
2018-12-21T00:41:30.739Z,100.00
2018-12-21T00:44:03.931Z,100.00
2018-12-21T00:46:35.020Z,100.00
2018-12-21T00:49:02.932Z,100.00
2018-12-21T00:51:30.846Z,100.00
2018-12-21T00:53:58.875Z,100.00
2018-12-21T00:56:26.830Z,100.00
2018-12-21T00:58:54.818Z,100.00
2018-12-21T01:01:22.893Z,100.00
2018-12-21T01:03:50.806Z,100.00
2018-12-21T01:06:18.904Z,100.00
2018-12-21T01:08:46.907Z,100.00
2018-12-21T01:11:14.802Z,100.00
2018-12-21T01:13:42.779Z,100.00
2018-12-21T01:16:10.758Z,100.00
2018-12-21T01:18:38.654Z,100.00
2018-12-21T01:21:06.690Z,100.00
2018-12-21T01:23:34.792Z,100.00
2018-12-21T01:26:02.727Z,100.00
2018-12-21T01:28:30.699Z,100.00
2018-12-21T01:30:58.672Z,100.00
2018-12-21T01:33:26.669Z,100.00
2018-12-21T01:35:54.629Z,100.00
2018-12-21T01:38:22.612Z,100.00
2018-12-21T01:40:50.621Z,100.00
2018-12-21T01:43:18.680Z,100.00
2018-12-21T01:45:46.682Z,100.00
2018-12-21T01:48:14.620Z,100.00
2018-12-21T01:50:42.627Z,100.00
2018-12-21T01:53:10.697Z,100.00
2018-12-21T01:55:38.636Z,100.00
2018-12-21T01:58:06.660Z,100.00
2018-12-21T02:00:34.640Z,100.00
2018-12-21T02:03:02.591Z,100.00
2018-12-21T02:05:30.493Z,100.00
2018-12-21T02:07:58.412Z,100.00
2018-12-21T02:10:26.328Z,100.00
2018-12-21T02:12:54.273Z,100.00
2018-12-21T02:15:22.214Z,100.00
2018-12-21T02:17:50.133Z,100.00
2018-12-21T02:20:18.237Z,100.00
2018-12-21T02:22:46.217Z,100.00
2018-12-21T02:25:14.158Z,100.00
2018-12-21T02:27:42.058Z,100.00
2018-12-21T02:30:10.079Z,100.00
2018-12-21T02:32:38.070Z,100.00
2018-12-21T02:35:06.253Z,100.00
2018-12-21T02:37:34.133Z,100.00
2018-12-21T02:40:02.225Z,100.00
2018-12-21T02:42:30.117Z,100.00
2018-12-21T02:44:58.122Z,100.00
2018-12-21T02:47:26.057Z,100.00
2018-12-21T02:49:54.022Z,100.00
2018-12-21T02:52:21.947Z,100.00
2018-12-21T02:54:49.920Z,100.00
2018-12-21T02:57:17.851Z,100.00
2018-12-21T02:59:45.819Z,100.00
2018-12-21T03:02:13.753Z,100.00
2018-12-21T03:04:41.695Z,100.00
2018-12-21T03:07:09.650Z,100.00
2018-12-21T03:09:37.587Z,100.00
2018-12-21T03:12:05.688Z,100.00
2018-12-21T03:14:33.649Z,100.00
2018-12-21T03:17:01.624Z,100.00
2018-12-21T03:19:29.591Z,100.00
2018-12-21T03:21:57.572Z,100.00
2018-12-21T03:24:25.627Z,100.00
2018-12-21T03:26:53.557Z,100.00
2018-12-21T03:29:21.556Z,100.00
2018-12-21T03:31:49.607Z,100.00
2018-12-21T03:34:17.568Z,100.00
2018-12-21T03:36:45.522Z,100.00
2018-12-21T03:39:13.524Z,100.00
2018-12-21T03:41:41.435Z,100.00
2018-12-21T03:44:09.391Z,100.00
2018-12-21T03:46:37.338Z,100.00
2018-12-21T03:49:05.321Z,100.00
2018-12-21T03:51:33.405Z,100.00
2018-12-21T03:54:01.442Z,100.00
2018-12-21T03:56:29.374Z,100.00
2018-12-21T03:58:57.340Z,100.00
2018-12-21T04:01:25.204Z,100.00
2018-12-21T04:03:53.280Z,100.00
2018-12-21T04:06:21.227Z,100.00
2018-12-21T04:08:50.195Z,100.00
2018-12-21T04:11:18.204Z,100.00
2018-12-21T04:13:46.156Z,100.00
2018-12-21T04:16:14.118Z,100.00
2018-12-21T04:18:42.090Z,100.00
2018-12-21T04:21:10.040Z,100.00
2018-12-21T04:23:37.944Z,100.00
2018-12-21T04:26:05.969Z,100.00
2018-12-21T04:28:34.024Z,100.00
2018-12-21T04:31:01.996Z,100.00
2018-12-21T04:33:29.956Z,100.00
2018-12-21T04:35:57.948Z,100.00
2018-12-21T04:38:25.903Z,100.00
2018-12-21T04:40:53.827Z,100.00
2018-12-21T04:43:21.915Z,100.00
2018-12-21T04:45:49.968Z,100.00
2018-12-21T04:48:17.923Z,100.00
2018-12-21T04:50:45.988Z,100.00
2018-12-21T04:53:14.011Z,100.00
2018-12-21T04:55:42.099Z,100.00
2018-12-21T04:58:10.498Z,100.00
2018-12-21T05:00:38.552Z,100.00
2018-12-21T05:03:06.677Z,100.00
2018-12-21T05:05:34.731Z,100.00
2018-12-21T05:08:02.800Z,100.00
2018-12-21T05:10:30.937Z,100.00
2018-12-21T05:12:59.088Z,100.00
2018-12-21T05:15:27.346Z,100.00
2018-12-21T05:17:55.469Z,100.00
2018-12-21T05:20:23.629Z,100.00
2018-12-21T05:22:52.351Z,100.00
2018-12-21T05:25:21.006Z,100.00
2018-12-21T05:27:49.109Z,100.00
2018-12-21T05:30:17.165Z,100.00
2018-12-21T05:32:45.407Z,100.00
2018-12-21T05:35:13.616Z,100.00
2018-12-21T05:37:41.704Z,100.00
2018-12-21T05:40:09.760Z,100.00
2018-12-21T05:42:37.903Z,100.00
2018-12-21T05:45:06.442Z,100.00
2018-12-21T05:47:34.550Z,100.00
2018-12-21T05:50:02.718Z,100.00
2018-12-21T05:52:30.781Z,100.00
2018-12-21T05:54:59.064Z,100.00
2018-12-21T05:57:27.428Z,100.00
2018-12-21T05:59:55.962Z,100.00
2018-12-21T06:02:24.632Z,100.00
2018-12-21T06:04:52.884Z,100.00
2018-12-21T06:07:21.273Z,100.00
2018-12-21T06:09:49.554Z,100.00
2018-12-21T06:12:17.733Z,100.00
2018-12-21T06:14:46.694Z,100.00
2018-12-21T06:17:15.045Z,100.00
2018-12-21T06:19:43.813Z,100.00
2018-12-21T06:22:12.019Z,100.00
2018-12-21T06:24:40.071Z,100.00
2018-12-21T06:27:08.282Z,100.00
2018-12-21T06:29:36.451Z,100.00
2018-12-21T06:32:04.754Z,100.00
2018-12-21T06:34:32.982Z,100.00
2018-12-21T06:37:01.199Z,100.00
2018-12-21T06:39:29.403Z,100.00
2018-12-21T06:41:58.687Z,100.00
2018-12-21T06:44:26.991Z,100.00
2018-12-21T06:46:55.215Z,100.00
2018-12-21T06:49:23.372Z,100.00
2018-12-21T06:51:51.479Z,100.00
2018-12-21T06:54:19.891Z,100.00
2018-12-21T06:56:48.107Z,100.00
2018-12-21T06:59:16.556Z,100.00
2018-12-21T07:01:44.849Z,100.00
2018-12-21T07:04:14.251Z,100.00
2018-12-21T07:06:42.508Z,100.00
2018-12-21T07:09:10.742Z,100.00
2018-12-21T07:11:38.931Z,100.00
2018-12-21T07:14:07.738Z,100.00
2018-12-21T07:16:36.001Z,100.00
2018-12-21T07:19:04.432Z,100.00
2018-12-21T07:21:32.714Z,100.00
2018-12-21T07:24:00.911Z,100.00
2018-12-21T07:26:29.343Z,100.00
2018-12-21T07:28:58.210Z,100.00
2018-12-21T07:31:26.446Z,100.00
2018-12-21T07:33:54.850Z,100.00
2018-12-21T07:36:23.467Z,100.00
2018-12-21T07:38:51.940Z,100.00
2018-12-21T07:41:20.258Z,100.00
2018-12-21T07:43:48.623Z,100.00
2018-12-21T07:46:16.764Z,100.00
2018-12-21T07:48:45.298Z,100.00
2018-12-21T07:51:13.593Z,100.00
2018-12-21T07:53:42.059Z,100.00
2018-12-21T07:56:11.490Z,99.23
2018-12-21T07:58:40.367Z,97.46
2018-12-21T08:01:08.984Z,95.29
2018-12-21T08:03:37.252Z,95.33
2018-12-21T08:06:06.063Z,96.94
2018-12-21T08:08:34.446Z,99.24
2018-12-21T08:11:03.470Z,98.51
2018-12-21T08:13:32.270Z,97.89
2018-12-21T08:16:00.902Z,96.38
2018-12-21T08:18:29.977Z,94.62
2018-12-21T08:20:59.450Z,95.14
2018-12-21T08:23:29.096Z,95.62
2018-12-21T08:25:57.961Z,96.03
2018-12-21T08:28:26.527Z,95.52
2018-12-21T08:30:55.167Z,96.51
2018-12-21T08:33:23.825Z,95.96
2018-12-21T08:35:53.027Z,94.21
2018-12-21T08:38:22.070Z,93.12
2018-12-21T08:40:50.572Z,92.69
2018-12-21T08:43:18.920Z,91.94
2018-12-21T08:45:48.265Z,90.34
2018-12-21T08:48:16.997Z,89.36
2018-12-21T08:50:46.449Z,86.07
2018-12-21T08:53:15.031Z,85.99
2018-12-21T08:55:44.452Z,88.61
2018-12-21T08:58:14.195Z,87.61
2018-12-21T09:00:42.779Z,87.16
2018-12-21T09:03:11.564Z,86.49
2018-12-21T09:05:40.128Z,84.87
2018-12-21T09:08:08.693Z,84.64
2018-12-21T09:10:37.457Z,84.54
2018-12-21T09:13:06.373Z,85.15
2018-12-21T09:15:35.000Z,86.38
2018-12-21T09:18:04.931Z,88.83
2018-12-21T09:20:33.836Z,91.49
2018-12-21T09:23:03.123Z,91.87
2018-12-21T09:25:31.956Z,93.48
2018-12-21T09:28:02.418Z,95.16
2018-12-21T09:30:30.750Z,94.22
2018-12-21T09:32:59.196Z,92.59
2018-12-21T09:35:27.693Z,89.07
2018-12-21T09:37:56.484Z,88.07
2018-12-21T09:40:25.067Z,85.48
2018-12-21T09:42:53.657Z,87.71
2018-12-21T09:45:22.555Z,87.65
2018-12-21T09:47:51.129Z,88.02
2018-12-21T09:50:19.797Z,90.70
2018-12-21T09:52:48.497Z,91.84
2018-12-21T09:55:18.085Z,94.97
2018-12-21T09:57:47.674Z,96.79
2018-12-21T10:00:16.673Z,97.11
2018-12-21T10:02:45.134Z,97.83
2018-12-21T10:05:15.717Z,96.35
2018-12-21T10:07:45.049Z,96.18
2018-12-21T10:10:13.592Z,97.04
2018-12-21T10:12:42.482Z,98.08
2018-12-21T10:15:11.524Z,95.58
2018-12-21T10:17:40.096Z,93.95
2018-12-21T10:20:09.282Z,92.55
2018-12-21T10:22:37.979Z,89.56
2018-12-21T10:25:07.116Z,87.50
2018-12-21T10:27:35.971Z,86.22
2018-12-21T10:30:06.226Z,83.39
2018-12-21T10:32:34.578Z,84.01
2018-12-21T10:35:02.754Z,84.63
2018-12-21T10:37:31.164Z,86.42
2018-12-21T10:39:59.372Z,87.00
2018-12-21T10:42:27.679Z,86.54
2018-12-21T10:44:56.402Z,88.12
2018-12-21T10:47:24.883Z,87.58
2018-12-21T10:49:53.148Z,86.51
2018-12-21T10:52:21.553Z,86.37
2018-12-21T10:54:49.943Z,87.15
2018-12-21T10:57:18.359Z,87.84
2018-12-21T10:59:46.961Z,88.30
2018-12-21T11:02:15.706Z,86.80
2018-12-21T11:04:44.088Z,87.76
2018-12-21T11:07:12.586Z,85.74
2018-12-21T11:09:41.096Z,87.33
2018-12-21T11:12:09.241Z,86.77
2018-12-21T11:14:37.608Z,88.82
2018-12-21T11:17:05.934Z,90.69
2018-12-21T11:19:35.164Z,91.09
2018-12-21T11:22:03.606Z,89.78
2018-12-21T11:24:35.510Z,86.55
2018-12-21T11:27:01.732Z,83.42
2018-12-21T11:29:29.893Z,85.30
2018-12-21T11:31:57.950Z,89.22
2018-12-21T11:34:25.982Z,91.78
2018-12-21T11:36:54.108Z,93.47
2018-12-21T11:39:22.213Z,93.14
2018-12-21T11:41:50.379Z,94.30
2018-12-21T11:44:18.427Z,92.45
2018-12-21T11:46:46.490Z,87.32
2018-12-21T11:49:14.585Z,81.65
2018-12-21T11:51:42.600Z,82.00
2018-12-21T11:54:10.748Z,83.93
2018-12-21T11:56:38.834Z,88.61
2018-12-21T11:59:06.912Z,89.13
2018-12-21T12:01:35.029Z,89.05
2018-12-21T12:04:03.203Z,89.76
2018-12-21T12:06:31.317Z,90.04
2018-12-21T12:09:06.199Z,89.44
2018-12-21T12:11:29.742Z,88.82
2018-12-21T12:13:57.805Z,88.20
2018-12-21T12:16:26.556Z,90.50
2018-12-21T12:18:54.573Z,89.14
2018-12-21T12:21:25.766Z,88.52
2018-12-21T12:23:55.089Z,89.05
2018-12-21T12:26:23.418Z,90.91
2018-12-21T12:28:51.645Z,89.63
2018-12-21T12:31:19.808Z,88.91
2018-12-21T12:33:48.018Z,88.86
2018-12-21T12:36:16.504Z,88.06
2018-12-21T12:38:44.678Z,86.42
2018-12-21T12:41:12.889Z,88.36
2018-12-21T12:43:41.406Z,90.09
2018-12-21T12:46:09.449Z,90.57
2018-12-21T12:48:37.685Z,92.16
2018-12-21T12:51:05.804Z,92.29
2018-12-21T12:53:34.054Z,92.39
2018-12-21T12:56:02.220Z,94.42
2018-12-21T12:58:30.361Z,94.17
2018-12-21T13:00:58.575Z,93.92
2018-12-21T13:03:26.935Z,92.84
2018-12-21T13:05:55.563Z,92.31
2018-12-21T13:08:23.670Z,91.38
2018-12-21T13:10:51.742Z,90.66
2018-12-21T13:13:20.395Z,89.90
2018-12-21T13:15:48.579Z,89.36
2018-12-21T13:18:17.237Z,89.40
2018-12-21T13:20:45.497Z,88.78
2018-12-21T13:23:13.558Z,90.80
2018-12-21T13:25:43.231Z,92.20
2018-12-21T13:28:11.821Z,93.35
2018-12-21T13:30:39.840Z,94.12
2018-12-21T13:33:07.906Z,92.89
2018-12-21T13:35:36.593Z,93.50
2018-12-21T13:38:04.749Z,94.36
2018-12-21T13:40:32.865Z,94.62
2018-12-21T13:43:01.357Z,93.65
2018-12-21T13:45:29.490Z,93.86
2018-12-21T13:48:00.593Z,93.54
2018-12-21T13:50:28.864Z,93.47
2018-12-21T13:52:57.085Z,93.67
2018-12-21T13:55:25.095Z,94.73
2018-12-21T13:57:53.243Z,94.97
2018-12-21T14:00:21.305Z,94.63
2018-12-21T14:02:49.465Z,95.36
2018-12-21T14:05:17.780Z,94.87
2018-12-21T14:07:45.910Z,96.59
2018-12-21T14:10:14.058Z,96.83
2018-12-21T14:12:42.613Z,96.70
2018-12-21T14:15:10.669Z,97.54
2018-12-21T14:17:38.720Z,98.47
2018-12-21T14:20:09.971Z,99.23
2018-12-21T14:22:38.448Z,99.04
2018-12-21T14:25:07.674Z,99.83
2018-12-21T14:27:36.027Z,100.00
2018-12-21T14:30:05.778Z,100.00
2018-12-21T14:32:33.901Z,100.00
2018-12-21T14:35:02.133Z,100.00
2018-12-21T14:37:30.211Z,100.00
2018-12-21T14:39:58.499Z,100.00
2018-12-21T14:42:26.644Z,100.00
2018-12-21T14:44:54.995Z,100.00
2018-12-21T14:47:23.487Z,100.00
2018-12-21T14:49:51.566Z,100.00
2018-12-21T14:52:19.927Z,100.00
2018-12-21T14:54:47.951Z,100.00
2018-12-21T14:57:15.950Z,100.00
2018-12-21T14:59:43.872Z,100.00
2018-12-21T15:02:11.940Z,100.00
2018-12-21T15:04:39.869Z,100.00
2018-12-21T15:07:07.886Z,100.00
2018-12-21T15:09:35.874Z,100.00
2018-12-21T15:12:03.915Z,100.00
2018-12-21T15:14:31.874Z,100.00
2018-12-21T15:16:59.732Z,100.00
2018-12-21T15:19:27.704Z,100.00
2018-12-21T15:21:57.388Z,100.00
2018-12-21T15:24:25.673Z,100.00
2018-12-21T15:26:53.737Z,100.00
2018-12-21T15:29:21.770Z,100.00
2018-12-21T15:31:49.806Z,100.00
2018-12-21T15:34:17.928Z,100.00
2018-12-21T15:36:45.863Z,100.00
2018-12-21T15:39:13.766Z,100.00
2018-12-21T15:41:41.812Z,100.00
2018-12-21T15:44:09.787Z,100.00
2018-12-21T15:46:37.727Z,100.00
2018-12-21T15:49:05.838Z,100.00
2018-12-21T15:51:33.944Z,100.00
2018-12-21T15:54:01.946Z,100.00
2018-12-21T15:56:30.081Z,100.00
2018-12-21T15:58:58.095Z,100.00
2018-12-21T16:01:26.384Z,100.00
2018-12-21T16:03:54.389Z,100.00
2018-12-21T16:06:22.697Z,100.00
2018-12-21T16:08:50.698Z,100.00
2018-12-21T16:11:19.027Z,100.00
2018-12-21T16:13:47.191Z,100.00
2018-12-21T16:16:15.310Z,100.00
2018-12-21T16:18:43.441Z,100.00
2018-12-21T16:21:11.628Z,100.00
2018-12-21T16:23:39.999Z,100.00
2018-12-21T16:26:08.422Z,100.00
2018-12-21T16:28:37.249Z,100.00
2018-12-21T16:31:05.575Z,100.00
2018-12-21T16:33:33.704Z,100.00
2018-12-21T16:36:02.043Z,100.00
2018-12-21T16:38:30.749Z,100.00
2018-12-21T16:41:00.116Z,100.00
2018-12-21T16:43:29.422Z,100.00
2018-12-21T16:45:58.115Z,100.00
2018-12-21T16:48:27.043Z,100.00
2018-12-21T16:50:58.012Z,100.00
2018-12-21T16:53:26.900Z,100.00
2018-12-21T16:55:55.235Z,100.00
2018-12-21T16:58:24.513Z,100.00
2018-12-21T17:00:53.613Z,100.00
2018-12-21T17:03:22.011Z,100.00
2018-12-21T17:05:50.668Z,100.00
2018-12-21T17:08:19.314Z,100.00
2018-12-21T17:10:48.521Z,100.00
2018-12-21T17:13:17.160Z,100.00
2018-12-21T17:15:45.489Z,100.00
2018-12-21T17:18:15.326Z,100.00
2018-12-21T17:20:43.973Z,100.00
2018-12-21T17:23:13.062Z,100.00
2018-12-21T17:25:41.795Z,100.00
2018-12-21T17:28:10.173Z,100.00
2018-12-21T17:30:39.303Z,100.00
2018-12-21T17:33:07.926Z,100.00
2018-12-21T17:35:37.555Z,100.00
2018-12-21T17:38:06.421Z,100.00
2018-12-21T17:40:34.822Z,100.00
2018-12-21T17:43:03.199Z,100.00
2018-12-21T17:45:32.355Z,100.00
2018-12-21T17:48:01.176Z,100.00
2018-12-21T17:50:30.305Z,100.00
2018-12-21T17:52:58.569Z,100.00
2018-12-21T17:55:27.074Z,100.00
2018-12-21T17:57:55.647Z,100.00
2018-12-21T18:00:23.925Z,100.00
2018-12-21T18:02:55.179Z,100.00
2018-12-21T18:05:26.622Z,100.00
2018-12-21T18:07:56.894Z,100.00
2018-12-21T18:10:25.592Z,100.00
2018-12-21T18:12:54.376Z,100.00
2018-12-21T18:15:23.302Z,100.00
2018-12-21T18:17:51.921Z,100.00
2018-12-21T18:20:20.185Z,100.00
2018-12-21T18:22:48.619Z,100.00
2018-12-21T18:25:22.584Z,100.00
2018-12-21T18:27:52.854Z,100.00
2018-12-21T18:30:28.387Z,100.00
2018-12-21T18:32:57.067Z,100.00
2018-12-21T18:35:25.512Z,100.00
2018-12-21T18:38:04.932Z,100.00
2018-12-21T18:40:33.769Z,100.00
2018-12-21T18:43:01.799Z,100.00
2018-12-21T18:45:29.862Z,100.00
2018-12-21T18:47:58.022Z,100.00
2018-12-21T18:50:27.127Z,100.00
2018-12-21T18:52:55.320Z,100.00
2018-12-21T18:55:23.441Z,100.00
2018-12-21T18:57:51.632Z,100.00
2018-12-21T19:00:19.890Z,100.00
2018-12-21T19:02:48.097Z,100.00
2018-12-21T19:05:16.441Z,100.00
2018-12-21T19:07:44.753Z,100.00
2018-12-21T19:10:13.063Z,100.00
2018-12-21T19:12:41.176Z,100.00
2018-12-21T19:15:10.766Z,100.00
2018-12-21T19:17:39.213Z,100.00
2018-12-21T19:20:10.252Z,100.00
2018-12-21T19:22:39.209Z,100.00
2018-12-21T19:25:09.107Z,100.00
2018-12-21T19:27:37.269Z,100.00
2018-12-21T19:30:07.715Z,100.00
2018-12-21T19:32:36.033Z,100.00
2018-12-21T19:35:04.458Z,100.00
2018-12-21T19:37:32.601Z,100.00
2018-12-21T19:40:00.967Z,100.00
2018-12-21T19:42:29.030Z,100.00
2018-12-21T19:44:57.133Z,100.00
2018-12-21T19:47:25.562Z,100.00
2018-12-21T19:49:53.791Z,100.00
2018-12-21T19:52:21.873Z,100.00
2018-12-21T19:54:54.374Z,100.00
2018-12-21T19:57:22.468Z,100.00
2018-12-21T19:59:50.570Z,100.00
2018-12-21T20:02:18.677Z,100.00
2018-12-21T20:04:46.902Z,100.00
2018-12-21T20:07:15.122Z,100.00
2018-12-21T20:09:43.458Z,100.00
2018-12-21T20:12:11.464Z,100.00
2018-12-21T20:14:39.489Z,100.00
2018-12-21T20:17:07.591Z,100.00
2018-12-21T20:19:35.823Z,100.00
2018-12-21T20:22:03.923Z,100.00
2018-12-21T20:24:34.818Z,100.00
2018-12-21T20:27:13.459Z,100.00
2018-12-21T20:29:37.528Z,100.00
2018-12-21T20:32:05.527Z,100.00
2018-12-21T20:34:34.207Z,100.00
2018-12-21T20:37:02.423Z,100.00
2018-12-21T20:39:30.638Z,100.00
2018-12-21T20:41:58.768Z,100.00
2018-12-21T20:44:26.890Z,100.00
2018-12-21T20:46:55.284Z,100.00
2018-12-21T20:49:23.578Z,100.00
2018-12-21T20:51:51.781Z,100.00
2018-12-21T20:54:19.861Z,100.00
2018-12-21T20:56:51.353Z,100.00
2018-12-21T20:59:21.847Z,100.00
2018-12-21T21:01:50.121Z,100.00
2018-12-21T21:04:18.280Z,100.00
2018-12-21T21:06:46.314Z,100.00
2018-12-21T21:09:15.434Z,100.00
2018-12-21T21:11:43.530Z,100.00
2018-12-21T21:14:13.208Z,100.00
2018-12-21T21:16:41.467Z,100.00
2018-12-21T21:19:09.513Z,100.00
2018-12-21T21:21:37.594Z,100.00
2018-12-21T21:24:05.632Z,100.00
2018-12-21T21:26:33.631Z,100.00
2018-12-21T21:29:01.699Z,100.00
2018-12-21T21:31:31.417Z,100.00
2018-12-21T21:33:59.466Z,100.00
2018-12-21T21:36:27.659Z,100.00
2018-12-21T21:38:55.734Z,100.00
2018-12-21T21:41:24.228Z,100.00
2018-12-21T21:43:52.318Z,100.00
2018-12-21T21:46:20.488Z,100.00
2018-12-21T21:48:48.659Z,100.00
2018-12-21T21:51:16.757Z,100.00
2018-12-21T21:53:44.791Z,100.00
2018-12-21T21:56:12.959Z,100.00
2018-12-21T21:58:41.010Z,100.00
2018-12-21T22:01:09.065Z,100.00
2018-12-21T22:03:37.154Z,100.00
2018-12-21T22:06:05.321Z,100.00
2018-12-21T22:08:33.361Z,100.00
2018-12-21T22:11:01.968Z,100.00
2018-12-21T22:13:30.521Z,100.00
2018-12-21T22:15:58.606Z,100.00
2018-12-21T22:18:26.671Z,100.00
2018-12-21T22:20:54.738Z,100.00
2018-12-21T22:23:22.733Z,100.00
2018-12-21T22:25:53.537Z,100.00
2018-12-21T22:28:20.863Z,100.00
2018-12-21T22:30:48.816Z,100.00
2018-12-21T22:33:16.810Z,100.00
2018-12-21T22:35:44.790Z,100.00
2018-12-21T22:38:12.758Z,100.00
2018-12-21T22:40:40.670Z,100.00
2018-12-21T22:43:08.587Z,100.00
2018-12-21T22:45:36.677Z,100.00
2018-12-21T22:48:04.730Z,100.00
2018-12-21T22:50:32.785Z,100.00
2018-12-21T22:53:00.802Z,100.00
2018-12-21T22:55:28.825Z,100.00
2018-12-21T22:57:56.838Z,100.00
2018-12-21T23:00:34.339Z,100.00
2018-12-21T23:03:02.517Z,100.00
2018-12-21T23:05:30.542Z,100.00
2018-12-21T23:07:58.507Z,100.00
2018-12-21T23:10:26.573Z,100.00
2018-12-21T23:12:54.640Z,100.00
2018-12-21T23:15:22.701Z,100.00
2018-12-21T23:17:50.623Z,100.00
2018-12-21T23:20:18.613Z,100.00
2018-12-21T23:22:46.562Z,100.00
2018-12-21T23:25:14.581Z,100.00
2018-12-21T23:27:42.546Z,100.00
2018-12-21T23:30:10.522Z,100.00
2018-12-21T23:32:38.499Z,100.00
2018-12-21T23:35:07.255Z,100.00
2018-12-21T23:37:35.313Z,100.00
2018-12-21T23:40:03.699Z,100.00
2018-12-21T23:42:31.703Z,100.00
2018-12-21T23:44:59.802Z,100.00
2018-12-21T23:47:27.738Z,100.00
2018-12-21T23:49:55.816Z,100.00
2018-12-21T23:52:23.855Z,100.00
2018-12-21T23:54:51.904Z,100.00
2018-12-21T23:57:19.848Z,100.00
2018-12-21T23:59:47.840Z,100.00
